Time;durP1;ratioP1;P1;durP2;ratioP2;P2;SDS_P1;SDS_P2;PMS_P1;PMS_P2;Temp;Humidity;BMP_temperature;BMP_pressure;BME280_temperature;BME280_humidity;BME280_pressure;Samples;Min_cycle;Max_cycle;Signal;HPM_P1;HPM_P2
2022/12/03 00:00:36;;;;;;;83.40;60.10;;;14.30;60.40;;;;;;4998602;27;90456;-53
2022/12/03 00:03:02;;;;;;;81.50;59.13;;;14.30;60.30;;;;;;4979957;28;91637;-52
2022/12/03 00:05:28;;;;;;;85.10;59.65;;;14.30;60.70;;;;;;4989399;28;89876;-52
2022/12/03 00:07:53;;;;;;;83.75;60.55;;;14.30;60.40;;;;;;4990087;28;92239;-52
2022/12/03 00:10:19;;;;;;;82.07;59.05;;;14.30;60.60;;;;;;4991739;28;92050;-52
2022/12/03 00:12:44;;;;;;;81.90;59.28;;;14.20;60.50;;;;;;4995201;28;90213;-51
2022/12/03 00:15:10;;;;;;;83.53;59.42;;;14.20;60.40;;;;;;4985700;28;92902;-53
2022/12/03 00:17:36;;;;;;;83.78;58.83;;;14.30;60.40;;;;;;4994196;28;91184;-52
2022/12/03 00:20:03;;;;;;;82.20;59.63;;;14.20;60.40;;;;;;4982412;28;90853;-52
2022/12/03 00:22:28;;;;;;;81.88;58.97;;;14.30;60.40;;;;;;4990436;28;89833;-49
2022/12/03 00:24:54;;;;;;;83.32;60.72;;;14.20;60.30;;;;;;4990698;28;90001;-52
2022/12/03 00:27:19;;;;;;;83.38;60.20;;;14.20;60.30;;;;;;4989576;28;90237;-53
2022/12/03 00:29:45;;;;;;;81.05;59.22;;;14.20;60.30;;;;;;4992557;28;90254;-52
2022/12/03 00:32:12;;;;;;;83.50;60.15;;;14.20;60.30;;;;;;4996419;28;89912;-52
2022/12/03 00:34:38;;;;;;;82.10;59.75;;;14.20;60.30;;;;;;4980571;27;89139;-51
2022/12/03 00:37:04;;;;;;;82.70;59.33;;;14.20;60.30;;;;;;4997236;28;90102;-53
2022/12/03 00:39:29;;;;;;;82.00;59.28;;;14.20;60.20;;;;;;4977835;28;90523;-50
2022/12/03 00:41:55;;;;;;;80.93;59.25;;;14.20;60.10;;;;;;4989977;28;90906;-52
2022/12/03 00:44:20;;;;;;;81.75;59.83;;;14.20;60.30;;;;;;4991184;28;90029;-53
2022/12/03 00:46:46;;;;;;;83.72;60.55;;;14.20;60.20;;;;;;4991313;28;90315;-53
2022/12/03 00:49:12;;;;;;;80.95;59.05;;;14.10;60.30;;;;;;4979728;28;90848;-51
2022/12/03 00:51:37;;;;;;;81.55;58.97;;;14.10;60.30;;;;;;4987629;28;91270;-51
2022/12/03 00:54:03;;;;;;;81.97;59.35;;;14.10;60.20;;;;;;4989634;28;93087;-54
2022/12/03 00:56:28;;;;;;;80.63;58.53;;;14.20;60.00;;;;;;4985867;28;90210;-52
2022/12/03 00:58:54;;;;;;;83.30;59.40;;;14.20;60.20;;;;;;4979998;28;89050;-52
2022/12/03 01:01:20;;;;;;;83.15;59.60;;;14.10;60.10;;;;;;4982053;28;91609;-51
2022/12/03 01:03:45;;;;;;;82.03;60.03;;;14.10;60.30;;;;;;4985276;28;89791;-55
2022/12/03 01:06:11;;;;;;;82.68;59.53;;;14.10;60.10;;;;;;4985260;28;92252;-52
2022/12/03 01:08:36;;;;;;;82.63;59.58;;;14.10;60.20;;;;;;4989679;28;91611;-53
2022/12/03 01:11:02;;;;;;;81.18;59.63;;;14.10;60.30;;;;;;4986370;28;89903;-51
2022/12/03 01:13:28;;;;;;;82.85;59.83;;;14.10;60.10;;;;;;4995080;28;89862;-54
2022/12/03 01:15:53;;;;;;;80.82;58.53;;;14.10;60.20;;;;;;4972406;28;90704;-53
2022/12/03 01:18:19;;;;;;;81.88;59.05;;;14.00;60.10;;;;;;4979078;28;90904;-52
2022/12/03 01:20:45;;;;;;;81.10;58.95;;;14.00;60.20;;;;;;4990204;28;89818;-52
2022/12/03 01:23:11;;;;;;;80.05;59.13;;;14.10;60.20;;;;;;4991335;28;89622;-54
2022/12/03 01:25:36;;;;;;;81.63;59.28;;;14.10;60.20;;;;;;4992156;28;90041;-53
2022/12/03 01:28:02;;;;;;;78.32;57.83;;;14.00;60.30;;;;;;4989527;28;89670;-51
2022/12/03 01:30:27;;;;;;;80.60;58.58;;;14.00;60.60;;;;;;4974913;28;91549;-50
2022/12/03 01:32:53;;;;;;;79.93;58.17;;;14.00;60.20;;;;;;4974766;28;90779;-50
2022/12/03 01:35:19;;;;;;;80.88;58.65;;;14.00;60.40;;;;;;4986060;27;90737;-51
2022/12/03 01:37:44;;;;;;;82.10;58.33;;;14.00;60.40;;;;;;4988906;28;90544;-52
2022/12/03 01:40:13;;;;;;;81.55;58.58;;;14.00;60.30;;;;;;4982104;28;89741;-50
2022/12/03 01:42:41;;;;;;;80.82;59.15;;;14.00;60.40;;;;;;4981486;28;90251;-52
2022/12/03 01:45:13;;;;;;;81.30;58.92;;;14.00;60.40;;;;;;4986087;28;90289;-53
2022/12/03 01:47:40;;;;;;;81.25;58.53;;;14.00;60.30;;;;;;4987329;28;89290;-51
2022/12/03 01:50:19;;;;;;;79.32;58.38;;;14.00;60.20;;;;;;4995566;28;89893;-54
2022/12/03 01:52:45;;;;;;;80.32;57.63;;;14.00;60.30;;;;;;4989132;28;91552;-53
2022/12/03 01:55:16;;;;;;;79.47;58.42;;;14.00;60.30;;;;;;4990267;28;91436;-50
2022/12/03 01:57:46;;;;;;;83.97;59.53;;;14.00;60.40;;;;;;4990206;28;91928;-53
2022/12/03 02:00:18;;;;;;;81.57;58.88;;;13.90;60.30;;;;;;4992410;28;90435;-55
2022/12/03 02:02:43;;;;;;;;;;;13.90;60.30;;;;;;4988806;28;92141;-50
2022/12/03 02:05:22;;;;;;;79.05;57.97;;;13.90;60.20;;;;;;4996295;28;91831;-51
2022/12/03 02:07:48;;;;;;;78.25;57.25;;;14.00;60.40;;;;;;4992244;28;91215;-54
2022/12/03 02:10:16;;;;;;;79.13;58.05;;;13.90;60.20;;;;;;4994382;28;89888;-53
2022/12/03 02:12:54;;;;;;;78.07;57.40;;;13.90;60.30;;;;;;4992743;28;89365;-54
2022/12/03 02:15:19;;;;;;;78.18;57.90;;;13.90;60.30;;;;;;4997799;28;89932;-51
2022/12/03 02:17:45;;;;;;;78.82;57.83;;;13.90;60.40;;;;;;4990338;28;92696;-53
2022/12/03 02:20:12;;;;;;;80.18;58.72;;;13.90;60.40;;;;;;4988267;28;90859;-50
2022/12/03 02:22:49;;;;;;;79.72;57.67;;;13.90;60.60;;;;;;4986338;28;89947;-50
2022/12/03 02:25:19;;;;;;;79.63;57.75;;;13.90;60.30;;;;;;4996336;28;91219;-54
2022/12/03 02:27:45;;;;;;;80.35;58.70;;;13.90;60.50;;;;;;4991687;28;91448;-52
2022/12/03 02:30:15;;;;;;;78.43;57.20;;;13.90;60.40;;;;;;4993550;28;89908;-51
2022/12/03 02:32:40;;;;;;;80.22;58.15;;;13.80;60.40;;;;;;4998325;28;91280;-54
2022/12/03 02:35:16;;;;;;;80.15;58.35;;;13.90;60.40;;;;;;4981571;28;90328;-51
2022/12/03 02:37:43;;;;;;;79.95;58.42;;;13.80;60.30;;;;;;4988503;28;91109;-52
2022/12/03 02:40:13;;;;;;;79.80;57.95;;;13.80;60.30;;;;;;4989294;28;90788;-53
2022/12/03 02:42:40;;;;;;;77.78;57.22;;;13.80;60.60;;;;;;4986538;28;92979;-52
2022/12/03 02:45:18;;;;;;;79.78;57.70;;;13.80;60.40;;;;;;4989480;28;91853;-52
2022/12/03 02:47:48;;;;;;;78.00;58.15;;;13.80;60.30;;;;;;4986584;28;91246;-54
2022/12/03 02:50:18;;;;;;;78.65;58.15;;;13.80;60.30;;;;;;4995174;27;90036;-53
2022/12/03 02:52:46;;;;;;;78.20;57.72;;;13.80;60.40;;;;;;4989592;28;90189;-52
2022/12/03 02:55:14;;;;;;;77.72;56.92;;;13.80;60.50;;;;;;4984472;28;90646;-54
2022/12/03 02:57:41;;;;;;;78.25;57.63;;;13.80;60.30;;;;;;4986162;28;92877;-55
2022/12/03 03:00:09;;;;;;;77.80;58.00;;;13.80;61.10;;;;;;4991421;28;89928;-53
2022/12/03 03:02:36;;;;;;;77.68;57.40;;;13.80;60.40;;;;;;5011184;27;89287;-54
2022/12/03 03:05:05;;;;;;;79.10;57.15;;;13.80;60.40;;;;;;4986820;28;91580;-52
2022/12/03 03:07:30;;;;;;;77.30;57.80;;;13.80;60.30;;;;;;4988429;28;90538;-55
2022/12/03 03:09:57;;;;;;;77.38;57.15;;;13.80;60.30;;;;;;4991158;28;93296;-51
2022/12/03 03:12:23;;;;;;;76.88;57.28;;;13.80;60.30;;;;;;4990723;28;90165;-53
2022/12/03 03:14:49;;;;;;;75.55;57.00;;;13.70;60.30;;;;;;4992447;28;90770;-54
2022/12/03 03:17:14;;;;;;;77.95;57.20;;;13.70;60.30;;;;;;4999642;28;89899;-52
2022/12/03 03:19:40;;;;;;;76.13;56.50;;;13.70;60.20;;;;;;4966822;28;90079;-52
2022/12/03 03:22:08;;;;;;;77.45;57.25;;;13.70;60.30;;;;;;4990902;28;90825;-51
2022/12/03 03:24:33;;;;;;;78.32;57.75;;;13.70;60.10;;;;;;4989592;28;95204;-54
2022/12/03 03:26:59;;;;;;;77.97;57.15;;;13.70;60.20;;;;;;4994866;28;90508;-54
2022/12/03 03:29:25;;;;;;;77.28;57.60;;;13.70;60.20;;;;;;4993972;28;89876;-51
2022/12/03 03:31:50;;;;;;;79.75;57.25;;;13.70;60.10;;;;;;4984296;28;90335;-52
2022/12/03 03:34:16;;;;;;;77.07;56.97;;;13.70;60.20;;;;;;4976223;28;92187;-54
2022/12/03 03:36:43;;;;;;;78.57;57.85;;;13.70;60.20;;;;;;4994653;28;90390;-54
2022/12/03 03:39:08;;;;;;;77.93;57.50;;;13.70;60.20;;;;;;4990679;28;89523;-54
2022/12/03 03:41:34;;;;;;;76.82;57.83;;;13.60;60.10;;;;;;4991012;28;90513;-53
2022/12/03 03:44:02;;;;;;;77.28;57.20;;;13.70;60.20;;;;;;4988573;28;90863;-51
2022/12/03 03:46:28;;;;;;;76.53;57.22;;;13.70;60.20;;;;;;4987702;28;90109;-55
2022/12/03 03:48:54;;;;;;;75.40;56.38;;;13.70;60.30;;;;;;4988988;28;90651;-52
2022/12/03 03:51:20;;;;;;;75.50;56.08;;;13.60;60.30;;;;;;4985667;28;89426;-53
2022/12/03 03:53:47;;;;;;;75.97;56.50;;;13.60;60.30;;;;;;4987616;28;90694;-52
2022/12/03 03:56:16;;;;;;;77.72;57.25;;;13.70;60.30;;;;;;4989761;28;91677;-55
2022/12/03 03:58:42;;;;;;;76.15;56.35;;;13.60;60.20;;;;;;4994110;28;90613;-53
2022/12/03 04:01:09;;;;;;;77.35;57.05;;;13.60;60.10;;;;;;4984207;28;91295;-53
2022/12/03 04:03:35;;;;;;;76.97;56.83;;;13.60;60.20;;;;;;4986372;28;90321;-54
2022/12/03 04:06:01;;;;;;;77.93;56.67;;;13.60;60.20;;;;;;4980961;28;90768;-55
2022/12/03 04:08:27;;;;;;;75.85;56.33;;;13.60;60.20;;;;;;4994723;28;92129;-53
2022/12/03 04:13:37;;;;;;;75.20;55.85;;;13.60;60.00;;;;;;4989504;28;89848;-53
2022/12/03 04:16:02;;;;;;;74.95;55.90;;;13.60;60.20;;;;;;4984024;28;90056;-53
2022/12/03 04:18:43;;;;;;;75.30;56.28;;;13.60;60.20;;;;;;4987157;28;91267;-52
2022/12/03 04:24:01;;;;;;;73.72;55.60;;;13.60;60.00;;;;;;4994495;28;91356;-54
2022/12/03 04:29:12;;;;;;;74.15;55.33;;;13.60;59.80;;;;;;4984716;28;90026;-52
2022/12/03 04:37:07;;;;;;;74.03;55.28;;;13.50;60.00;;;;;;4990725;28;90604;-53
2022/12/03 04:39:32;;;;;;;75.72;56.05;;;13.50;60.10;;;;;;4986610;28;90053;-53
2022/12/03 04:41:58;;;;;;;75.45;56.03;;;13.50;60.30;;;;;;4987817;28;94343;-55
2022/12/03 04:44:35;;;;;;;73.82;56.13;;;13.60;60.20;;;;;;4987460;28;91463;-54
2022/12/03 04:47:06;;;;;;;74.93;56.10;;;13.60;60.10;;;;;;4957814;28;91049;-54
2022/12/03 04:49:33;;;;;;;74.60;55.50;;;13.50;60.10;;;;;;4982260;28;92574;-55
2022/12/03 04:51:59;;;;;;;74.22;55.40;;;13.60;60.10;;;;;;4991342;28;89618;-54
2022/12/03 04:54:25;;;;;;;75.95;55.90;;;13.50;60.00;;;;;;4981518;28;90592;-52
2022/12/03 04:56:51;;;;;;;74.68;55.97;;;13.50;60.30;;;;;;4986497;28;90767;-54
2022/12/03 04:59:16;;;;;;;74.50;55.90;;;13.50;60.10;;;;;;4981661;28;90154;-54
2022/12/03 05:01:43;;;;;;;74.97;56.08;;;13.50;60.00;;;;;;4987473;28;90591;-53
2022/12/03 05:04:09;;;;;;;74.63;55.80;;;13.40;60.00;;;;;;4994211;27;90228;-54
2022/12/03 05:06:34;;;;;;;75.38;56.35;;;13.40;60.80;;;;;;4995570;28;89962;-53
2022/12/03 05:09:00;;;;;;;73.95;55.78;;;13.50;60.00;;;;;;4985517;28;90378;-55
2022/12/03 05:11:25;;;;;;;74.68;56.05;;;13.50;59.90;;;;;;4989922;28;90066;-55
2022/12/03 05:13:51;;;;;;;75.35;55.97;;;13.50;59.90;;;;;;4984728;28;91688;-51
2022/12/03 05:16:17;;;;;;;75.40;56.35;;;13.50;60.00;;;;;;4985721;28;92008;-54
2022/12/03 05:18:43;;;;;;;73.10;54.90;;;13.40;59.80;;;;;;4983056;28;90015;-51
2022/12/03 05:21:08;;;;;;;74.07;55.78;;;13.40;60.20;;;;;;4990633;28;91109;-53
2022/12/03 05:23:34;;;;;;;74.65;55.80;;;13.50;60.10;;;;;;4994483;28;90109;-53
2022/12/03 05:26:00;;;;;;;74.35;55.42;;;13.40;60.00;;;;;;4985102;28;91742;-54
2022/12/03 05:28:25;;;;;;;72.57;55.13;;;13.50;60.10;;;;;;4991284;28;90522;-52
2022/12/03 05:30:51;;;;;;;73.97;55.75;;;13.50;60.00;;;;;;4989429;28;89086;-54
2022/12/03 05:33:17;;;;;;;74.53;55.58;;;13.40;60.00;;;;;;4989041;28;91181;-52
2022/12/03 05:35:43;;;;;;;74.10;55.92;;;13.40;59.90;;;;;;4992137;28;91321;-51
2022/12/03 05:38:08;;;;;;;74.07;55.72;;;13.40;60.00;;;;;;4996918;28;90579;-53
2022/12/03 05:40:34;;;;;;;72.72;54.97;;;13.40;60.20;;;;;;4987939;28;90617;-54
2022/12/03 05:43:00;;;;;;;73.85;54.75;;;13.50;60.10;;;;;;4989571;28;89984;-54
2022/12/03 05:45:34;;;;;;;74.28;55.55;;;13.50;60.10;;;;;;4991611;28;91889;-52
2022/12/03 05:48:01;;;;;;;73.35;55.33;;;13.50;60.00;;;;;;4994408;28;89890;-56
2022/12/03 05:50:29;;;;;;;73.25;55.90;;;13.40;60.10;;;;;;4987268;28;91249;-53
2022/12/03 05:52:56;;;;;;;75.78;56.25;;;13.40;60.00;;;;;;4994360;28;90698;-53
2022/12/03 05:55:22;;;;;;;73.68;55.85;;;13.40;60.10;;;;;;4984168;28;90025;-55
2022/12/03 05:57:48;;;;;;;73.30;55.22;;;13.40;60.10;;;;;;4988417;28;90609;-54
2022/12/03 06:00:17;;;;;;;71.47;54.30;;;13.30;60.00;;;;;;4988946;28;90252;-52
2022/12/03 06:02:43;;;;;;;75.75;56.08;;;13.30;60.20;;;;;;4990941;28;91016;-55
2022/12/03 06:05:10;;;;;;;74.43;55.38;;;13.40;60.00;;;;;;4984979;28;90279;-55
2022/12/03 06:07:36;;;;;;;73.32;54.90;;;13.40;60.00;;;;;;4994112;28;95567;-54
2022/12/03 06:10:04;;;;;;;72.63;55.60;;;13.40;59.90;;;;;;4984570;28;90069;-54
2022/12/03 06:12:29;;;;;;;71.22;53.78;;;13.40;60.00;;;;;;4996273;28;92634;-53
2022/12/03 06:14:55;;;;;;;75.45;55.28;;;13.40;60.10;;;;;;4994594;28;90497;-54
2022/12/03 06:17:21;;;;;;;74.05;55.17;;;13.40;60.00;;;;;;4981014;28;95262;-50
2022/12/03 06:19:46;;;;;;;73.50;54.78;;;13.40;60.10;;;;;;4994851;28;89238;-52
2022/12/03 06:22:12;;;;;;;72.43;54.53;;;13.40;60.10;;;;;;4989240;28;90486;-53
2022/12/03 06:24:38;;;;;;;74.65;55.08;;;13.30;60.10;;;;;;4983737;28;90186;-54
2022/12/03 06:27:04;;;;;;;74.63;55.28;;;13.30;60.20;;;;;;4990321;28;90955;-53
2022/12/03 06:29:29;;;;;;;77.38;55.35;;;13.20;60.20;;;;;;4987129;28;91281;-54
2022/12/03 06:31:55;;;;;;;73.63;55.08;;;13.30;60.20;;;;;;4983195;28;90722;-53
2022/12/03 06:34:20;;;;;;;75.68;57.38;;;13.30;60.10;;;;;;4988609;27;91261;-53
2022/12/03 06:36:48;;;;;;;74.43;55.20;;;13.20;60.20;;;;;;4995980;28;91726;-53
2022/12/03 06:39:15;;;;;;;73.57;54.78;;;13.20;60.20;;;;;;4989754;28;95198;-54
2022/12/03 06:41:40;;;;;;;77.50;56.13;;;13.20;60.20;;;;;;4986593;28;90402;-54
2022/12/03 06:44:06;;;;;;;75.57;55.63;;;13.20;60.30;;;;;;4992245;28;90690;-55
2022/12/03 06:46:32;;;;;;;77.55;55.75;;;13.20;60.00;;;;;;4988508;28;90038;-54
2022/12/03 06:48:57;;;;;;;73.40;55.30;;;13.10;60.20;;;;;;4979482;28;91130;-52
2022/12/03 06:51:23;;;;;;;76.25;55.47;;;13.00;60.00;;;;;;4991943;28;91996;-53
2022/12/03 06:53:48;;;;;;;76.65;55.15;;;13.00;60.10;;;;;;4980395;28;91232;-53
2022/12/03 06:56:14;;;;;;;85.65;55.33;;;13.00;60.00;;;;;;4984400;28;90084;-55
2022/12/03 06:58:40;;;;;;;76.00;54.67;;;13.10;59.80;;;;;;4992107;28;90065;-53
2022/12/03 07:01:05;;;;;;;76.32;55.60;;;13.10;59.70;;;;;;4991996;28;90000;-53
2022/12/03 07:03:31;;;;;;;75.43;55.25;;;13.20;59.70;;;;;;4989014;28;90295;-53
2022/12/03 07:05:56;;;;;;;76.03;55.42;;;13.30;59.50;;;;;;4971754;28;89942;-50
2022/12/03 07:08:22;;;;;;;78.30;55.65;;;13.40;59.80;;;;;;4995907;28;89278;-54
2022/12/03 07:10:48;;;;;;;78.45;55.60;;;13.50;59.40;;;;;;4991686;28;90165;-54
2022/12/03 07:13:13;;;;;;;76.15;55.40;;;13.60;59.40;;;;;;4983810;28;90676;-53
2022/12/03 07:15:39;;;;;;;74.38;54.53;;;13.60;59.30;;;;;;4994859;28;90956;-53
2022/12/03 07:18:05;;;;;;;74.90;55.60;;;13.60;59.50;;;;;;4987372;28;95000;-52
2022/12/03 07:20:30;;;;;;;79.53;55.95;;;13.70;59.30;;;;;;4993409;28;90038;-56
2022/12/03 07:22:56;;;;;;;75.40;53.42;;;13.70;59.30;;;;;;4972637;28;90339;-52
2022/12/03 07:25:21;;;;;;;75.10;54.80;;;13.80;60.30;;;;;;4992867;28;90472;-53
2022/12/03 07:27:47;;;;;;;75.25;56.00;;;13.80;59.20;;;;;;4998014;28;90305;-50
2022/12/03 07:30:14;;;;;;;80.72;55.63;;;13.70;59.20;;;;;;4985955;28;90547;-53
2022/12/03 07:32:40;;;;;;;74.00;54.85;;;13.80;59.30;;;;;;4988233;28;89853;-51
2022/12/03 07:35:06;;;;;;;83.50;54.40;;;13.90;59.10;;;;;;4987861;28;90360;-52
2022/12/03 07:37:35;;;;;;;74.38;54.92;;;14.00;58.90;;;;;;4991353;28;90471;-54
2022/12/03 07:40:01;;;;;;;74.93;54.58;;;14.00;58.60;;;;;;4988441;27;91547;-54
2022/12/03 07:42:27;;;;;;;78.97;55.15;;;14.10;58.30;;;;;;4992380;28;90265;-53
2022/12/03 07:44:52;;;;;;;74.70;54.47;;;14.20;58.20;;;;;;4989717;28;91195;-52
2022/12/03 07:47:18;;;;;;;78.18;54.78;;;14.40;58.10;;;;;;4990420;28;91371;-53
2022/12/03 07:49:44;;;;;;;78.38;54.30;;;14.70;57.50;;;;;;4990581;28;90834;-53
2022/12/03 07:52:09;;;;;;;78.75;54.85;;;14.80;57.10;;;;;;4989626;28;90551;-50
2022/12/03 07:54:35;;;;;;;82.72;55.60;;;14.80;56.80;;;;;;4987864;28;90010;-52
2022/12/03 07:57:01;;;;;;;80.10;55.05;;;14.60;57.20;;;;;;4987414;28;92712;-51
2022/12/03 07:59:26;;;;;;;78.30;56.10;;;14.50;57.90;;;;;;4975411;28;91398;-53
2022/12/03 08:01:52;;;;;;;81.13;55.42;;;14.30;58.50;;;;;;4978184;28;90243;-51
2022/12/03 08:04:19;;;;;;;83.13;55.80;;;14.20;59.20;;;;;;4982040;28;90918;-54
2022/12/03 08:06:45;;;;;;;81.55;55.90;;;14.20;59.70;;;;;;4988185;28;90471;-51
2022/12/03 08:09:11;;;;;;;79.22;55.60;;;14.30;59.80;;;;;;4983319;28;91281;-52
2022/12/03 08:11:36;;;;;;;80.20;55.90;;;14.30;60.70;;;;;;4990554;28;90018;-54
2022/12/03 08:14:19;;;;;;;80.43;55.88;;;14.30;61.50;;;;;;4990767;28;90097;-53
2022/12/03 08:16:46;;;;;;;80.47;56.33;;;14.30;61.90;;;;;;4992142;28;90930;-53
2022/12/03 08:19:14;;;;;;;80.18;55.75;;;14.30;62.10;;;;;;4991752;28;90802;-57
2022/12/03 08:21:40;;;;;;;83.53;55.83;;;14.30;62.10;;;;;;4990710;28;91563;-52
2022/12/03 08:24:20;;;;;;;80.55;56.10;;;14.30;62.20;;;;;;4978068;28;90119;-51
2022/12/03 08:26:47;;;;;;;84.75;55.75;;;14.30;62.40;;;;;;4987040;28;89895;-52
2022/12/03 08:29:18;;;;;;;80.15;55.30;;;14.30;62.40;;;;;;4992374;28;90803;-52
2022/12/03 08:31:50;;;;;;;83.55;55.97;;;14.30;62.40;;;;;;4986255;28;96403;-52
2022/12/03 08:34:39;;;;;;;81.68;55.40;;;14.30;62.30;;;;;;4986434;28;93477;-52
2022/12/03 08:37:18;;;;;;;79.00;55.45;;;14.30;62.50;;;;;;4996725;28;89746;-52
2022/12/03 08:39:49;;;;;;;80.00;55.78;;;14.30;62.20;;;;;;4983309;28;90209;-51
2022/12/03 08:45:29;;;;;;;76.85;55.08;;;14.30;62.20;;;;;;4985837;28;90497;-53
2022/12/03 08:48:01;;;;;;;77.57;55.72;;;14.30;62.20;;;;;;4985704;28;89180;-53
2022/12/03 08:50:29;;;;;;;78.88;54.90;;;14.30;62.30;;;;;;4991002;28;90789;-47
2022/12/03 08:53:10;;;;;;;78.00;55.22;;;14.30;62.30;;;;;;4990652;28;90982;-53
2022/12/03 08:55:37;;;;;;;80.53;55.22;;;14.30;62.20;;;;;;4984371;28;91007;-49
2022/12/03 08:58:21;;;;;;;80.47;55.13;;;14.30;62.10;;;;;;4988155;28;89686;-52
2022/12/03 09:00:53;;;;;;;78.00;55.15;;;14.40;62.40;;;;;;4984238;28;90227;-52
2022/12/03 09:03:18;;;;;;;80.53;56.13;;;14.40;62.30;;;;;;4979381;28;90497;-53
2022/12/03 09:05:44;;;;;;;80.85;55.03;;;14.40;62.00;;;;;;4990238;28;90176;-53
2022/12/03 09:08:10;;;;;;;80.18;55.78;;;14.30;61.90;;;;;;4990522;28;90124;-53
2022/12/03 09:10:36;;;;;;;78.85;56.75;;;14.30;62.00;;;;;;4989664;28;90088;-53
2022/12/03 09:13:01;;;;;;;78.95;57.15;;;14.30;62.30;;;;;;4993809;28;92742;-50
2022/12/03 09:15:27;;;;;;;82.18;56.28;;;14.30;62.20;;;;;;4990037;28;90102;-52
2022/12/03 09:17:53;;;;;;;78.55;55.50;;;14.30;62.50;;;;;;4985570;28;89839;-53
2022/12/03 09:20:18;;;;;;;81.03;55.97;;;14.40;62.60;;;;;;4994212;28;91617;-52
2022/12/03 09:22:44;;;;;;;79.53;56.28;;;14.40;62.60;;;;;;4988398;28;90444;-53
2022/12/03 09:25:10;;;;;;;82.25;55.88;;;14.40;62.50;;;;;;4997568;28;89947;-50
2022/12/03 09:27:36;;;;;;;80.63;55.92;;;14.40;62.80;;;;;;4985725;28;91623;-52
2022/12/03 09:30:02;;;;;;;77.13;55.47;;;14.40;62.70;;;;;;4993242;28;89934;-52
2022/12/03 09:32:28;;;;;;;77.45;56.47;;;14.40;62.70;;;;;;4985141;28;94152;-52
2022/12/03 09:34:53;;;;;;;80.40;56.13;;;14.40;62.80;;;;;;4995878;28;90096;-53
2022/12/03 09:37:21;;;;;;;78.18;56.38;;;14.40;62.70;;;;;;4973991;28;89381;-52
2022/12/03 09:39:46;;;;;;;78.95;55.38;;;14.40;62.70;;;;;;4991591;28;90070;-50
2022/12/03 09:42:12;;;;;;;83.05;57.28;;;14.40;62.70;;;;;;4981778;28;90179;-51
2022/12/03 09:44:38;;;;;;;79.25;57.15;;;14.40;63.20;;;;;;4979176;28;93134;-52
2022/12/03 09:47:04;;;;;;;79.70;56.45;;;14.30;63.70;;;;;;4991703;28;90258;-51
2022/12/03 09:49:32;;;;;;;81.43;58.05;;;14.10;63.50;;;;;;4993342;28;91226;-51
2022/12/03 09:52:00;;;;;;;81.68;57.08;;;14.10;62.30;;;;;;4978532;28;91282;-51
2022/12/03 09:54:28;;;;;;;82.57;57.83;;;14.20;61.20;;;;;;4986051;28;90129;-51
2022/12/03 09:56:56;;;;;;;83.97;57.78;;;14.20;60.60;;;;;;4981740;28;95875;-51
2022/12/03 09:59:25;;;;;;;82.85;57.38;;;14.30;60.80;;;;;;4978444;28;91049;-52
2022/12/03 10:01:54;;;;;;;83.00;56.63;;;14.30;61.40;;;;;;4990362;28;89118;-51
2022/12/03 10:04:20;;;;;;;80.72;56.97;;;14.30;61.10;;;;;;4988794;28;90112;-52
2022/12/03 10:06:46;;;;;;;79.53;57.17;;;14.30;61.40;;;;;;4997033;28;89827;-52
2022/12/03 10:09:16;;;;;;;82.20;55.75;;;14.30;61.20;;;;;;4986108;28;92748;-51
2022/12/03 10:11:42;;;;;;;78.78;56.00;;;14.30;62.00;;;;;;4995059;28;89945;-52
2022/12/03 10:14:13;;;;;;;83.93;57.10;;;14.40;61.50;;;;;;4995793;28;90434;-49
2022/12/03 10:16:40;;;;;;;80.10;55.78;;;14.40;61.30;;;;;;4996492;28;89882;-51
2022/12/03 10:19:10;;;;;;;78.80;56.10;;;14.30;61.30;;;;;;4991694;28;91297;-49
2022/12/03 10:21:37;;;;;;;82.00;56.20;;;14.40;61.30;;;;;;4996632;28;90503;-51
2022/12/03 10:24:15;;;;;;;78.03;56.35;;;14.40;61.40;;;;;;4980629;28;90255;-54
2022/12/03 10:26:43;;;;;;;79.00;56.83;;;14.40;61.30;;;;;;4999051;28;90906;-52
2022/12/03 10:29:25;;;;;;;78.07;56.50;;;14.40;61.30;;;;;;4979108;28;90273;-53
2022/12/03 10:31:56;;;;;;;81.32;56.40;;;14.40;61.50;;;;;;4985582;28;96502;-51
2022/12/03 10:34:31;;;;;;;81.93;55.80;;;14.40;61.40;;;;;;4995376;28;91204;-48
2022/12/03 10:37:26;;;;;;;76.82;56.13;;;14.40;61.40;;;;;;4989647;28;90029;-51
2022/12/03 10:39:58;;;;;;;81.05;56.67;;;14.40;61.50;;;;;;4985782;28;89667;-54
2022/12/03 10:42:26;;;;;;;77.35;55.53;;;14.40;61.30;;;;;;4998947;28;89725;-52
2022/12/03 10:45:11;;;;;;;76.35;56.08;;;14.40;61.30;;;;;;4987954;28;91601;-51
2022/12/03 10:47:36;;;;;;;80.68;55.33;;;14.40;61.30;;;;;;4982955;28;91646;-47
2022/12/03 10:50:05;;;;;;;76.00;55.25;;;14.40;61.40;;;;;;4996653;28;90301;-51
2022/12/03 10:52:31;;;;;;;78.43;56.63;;;14.40;61.40;;;;;;4987307;28;89835;-52
2022/12/03 10:54:57;;;;;;;79.63;57.00;;;14.40;61.50;;;;;;4985490;28;90336;-51
2022/12/03 10:57:23;;;;;;;79.35;55.75;;;14.40;61.20;;;;;;4987012;28;90069;-51
2022/12/03 10:59:49;;;;;;;79.50;56.15;;;14.40;61.40;;;;;;4992883;28;91092;-53
2022/12/03 11:02:22;;;;;;;80.30;56.50;;;14.40;61.30;;;;;;4996515;28;91688;-53
2022/12/03 11:04:49;;;;;;;78.07;56.83;;;14.40;61.30;;;;;;4992177;28;89996;-50
2022/12/03 11:07:17;;;;;;;79.88;56.70;;;14.40;61.30;;;;;;4998220;28;90209;-52
2022/12/03 11:09:57;;;;;;;78.13;56.33;;;14.40;61.20;;;;;;4989458;28;90019;-50
2022/12/03 11:12:33;;;;;;;78.28;57.03;;;14.40;61.30;;;;;;4989689;28;90948;-52
2022/12/03 11:15:05;;;;;;;78.47;55.90;;;14.40;61.20;;;;;;4994498;28;90187;-49
2022/12/03 11:17:48;;;;;;;79.47;57.33;;;14.40;61.30;;;;;;4991465;28;90593;-50
2022/12/03 11:20:23;;;;;;;78.43;56.45;;;14.40;61.20;;;;;;4984171;28;91316;-51
2022/12/03 11:22:52;;;;;;;78.00;56.30;;;14.40;61.50;;;;;;4996005;28;90186;-54
2022/12/03 11:25:24;;;;;;;76.93;56.70;;;14.40;61.20;;;;;;4983102;28;91268;-50
2022/12/03 11:28:11;;;;;;;77.70;56.33;;;14.40;61.30;;;;;;4993425;28;91557;-53
2022/12/03 11:31:00;;;;;;;76.75;55.75;;;14.40;61.30;;;;;;4986963;28;90789;-48
2022/12/03 11:33:28;;;;;;;77.43;55.72;;;14.40;61.10;;;;;;4989765;28;89897;-51
2022/12/03 11:36:03;;;;;;;80.10;56.60;;;14.40;61.20;;;;;;4978850;28;91369;-52
2022/12/03 11:38:40;;;;;;;79.10;56.85;;;14.40;61.20;;;;;;4988704;28;90159;-52
2022/12/03 11:41:11;;;;;;;76.80;56.60;;;14.30;61.20;;;;;;4989727;28;90060;-52
2022/12/03 11:43:57;;;;;;;78.40;56.00;;;14.40;61.20;;;;;;4993885;28;89968;-53
2022/12/03 11:46:49;;;;;;;80.78;58.08;;;14.40;61.20;;;;;;4991065;28;90103;-50
2022/12/03 11:49:37;;;;;;;81.18;56.42;;;14.40;61.30;;;;;;4992290;28;90392;-50
2022/12/03 11:52:21;;;;;;;78.28;56.97;;;14.40;61.30;;;;;;4983404;28;91785;-52
2022/12/03 11:54:51;;;;;;;78.43;56.83;;;14.40;61.80;;;;;;4988186;28;91310;-53
2022/12/03 11:57:27;;;;;;;76.10;55.95;;;14.40;62.10;;;;;;4986140;28;90549;-49
2022/12/03 12:00:00;;;;;;;79.65;56.55;;;14.40;62.10;;;;;;4973264;28;94333;-52
2022/12/03 12:02:26;;;;;;;82.57;56.45;;;14.30;61.80;;;;;;4976972;28;95257;-53
2022/12/03 12:04:52;;;;;;;80.88;57.15;;;14.40;61.60;;;;;;4992619;28;92033;-52
2022/12/03 12:07:36;;;;;;;84.13;57.25;;;14.40;61.50;;;;;;4985328;28;89862;-52
2022/12/03 12:10:02;;;;;;;79.40;56.15;;;14.40;61.70;;;;;;4979951;28;89486;-52
2022/12/03 12:12:43;;;;;;;80.03;56.42;;;14.40;61.80;;;;;;4973551;28;91774;-53
2022/12/03 12:15:34;;;;;;;79.93;56.70;;;14.40;61.90;;;;;;4987654;28;92175;-52
2022/12/03 12:18:33;;;;;;;81.33;56.40;;;14.50;62.00;;;;;;4982266;28;91771;-50
2022/12/03 12:21:36;;;;;;;80.70;57.00;;;14.50;61.90;;;;;;4993100;28;91229;-52
2022/12/03 12:24:30;;;;;;;84.18;57.15;;;14.50;61.80;;;;;;4985365;28;96265;-50
2022/12/03 12:27:07;;;;;;;84.07;56.70;;;14.40;62.10;;;;;;4984400;28;90394;-51
2022/12/03 12:29:34;;;;;;;82.40;56.75;;;14.40;62.10;;;;;;4982934;28;96221;-52
2022/12/03 12:32:31;;;;;;;81.65;57.40;;;14.40;62.20;;;;;;4984168;28;90778;-52
2022/12/03 12:35:13;;;;;;;89.18;56.95;;;14.40;62.20;;;;;;4982307;28;90500;-49
2022/12/03 12:37:52;;;;;;;78.22;55.85;;;14.40;62.10;;;;;;4990113;28;89863;-51
2022/12/03 12:40:20;;;;;;;79.35;55.83;;;14.40;62.50;;;;;;4983699;28;91125;-52
2022/12/03 12:42:58;;;;;;;80.63;56.42;;;14.50;62.10;;;;;;4985249;28;90246;-52
2022/12/03 12:45:32;;;;;;;80.18;56.88;;;14.40;61.50;;;;;;4983115;28;91567;-52
2022/12/03 12:48:20;;;;;;;84.18;58.05;;;14.40;61.20;;;;;;4981617;28;91202;-53
2022/12/03 12:50:49;;;;;;;78.90;56.25;;;14.40;61.10;;;;;;4987493;28;90118;-51
2022/12/03 12:53:21;;;;;;;82.13;57.17;;;14.40;61.20;;;;;;4986548;28;90491;-53